Lac-Bouchette, Canada
Current Conditions -  °F | °C
As of 3:00 PM on Thursday 23 Oct 2014 (Local Time) from CYRJ Reporting Station
Scattered Clouds Scattered Clouds  
Wind Chill: 46°   Ceiling: Unl
Heat Index: 48°   Visibility: 40mi
Dew Point: 30°   Wind: 5mph
Humidity: 50%   Direction: 30°NNE
Pressure: 30.18"   Gusts: NA
Location:  48.27°N, 72.17°W
Report Text: CYRJ 231900Z 03004KT 340V070 40SM FEW100 SCT220 09/M01 A3018 RMK AC1CI4 AC TR SLP227
Loading
Personal Weather Stations






























Interactive Weather Map
Tropical Storm Tracking
New forecast layout! Learn more

10-Day Weather Forecast

Advertisements
Track Severe Weather on mobile